sensor_id;sensor_type;location;lat;lon;timestamp;P1;durP1;ratioP1;P2;durP2;ratioP2
1220;SDS011;600;48.044;7.878;2022-12-20T00:01:17;1.63;;;1.50;;
1220;SDS011;600;48.044;7.878;2022-12-20T00:03:47;1.50;;;1.42;;
1220;SDS011;600;48.044;7.878;2022-12-20T00:06:15;1.40;;;1.30;;
1220;SDS011;600;48.044;7.878;2022-12-20T00:08:42;1.58;;;1.48;;
1220;SDS011;600;48.044;7.878;2022-12-20T00:11:10;1.60;;;1.50;;
1220;SDS011;600;48.044;7.878;2022-12-20T00:13:37;1.60;;;1.50;;
1220;SDS011;600;48.044;7.878;2022-12-20T00:16:05;1.30;;;1.30;;
1220;SDS011;600;48.044;7.878;2022-12-20T00:18:33;1.50;;;1.40;;
1220;SDS011;600;48.044;7.878;2022-12-20T00:21:00;2.07;;;1.87;;
1220;SDS011;600;48.044;7.878;2022-12-20T00:23:27;2.85;;;1.40;;
1220;SDS011;600;48.044;7.878;2022-12-20T00:25:58;2.00;;;1.63;;
1220;SDS011;600;48.044;7.878;2022-12-20T00:28:27;1.77;;;1.67;;
1220;SDS011;600;48.044;7.878;2022-12-20T00:30:54;1.63;;;1.40;;
1220;SDS011;600;48.044;7.878;2022-12-20T00:33:21;1.60;;;1.50;;
1220;SDS011;600;48.044;7.878;2022-12-20T00:35:48;1.42;;;1.40;;
1220;SDS011;600;48.044;7.878;2022-12-20T00:38:14;1.90;;;1.80;;
1220;SDS011;600;48.044;7.878;2022-12-20T00:40:41;1.70;;;1.60;;
1220;SDS011;600;48.044;7.878;2022-12-20T00:43:08;1.63;;;1.45;;
1220;SDS011;600;48.044;7.878;2022-12-20T00:45:36;1.42;;;1.33;;
1220;SDS011;600;48.044;7.878;2022-12-20T00:48:03;1.45;;;1.35;;
1220;SDS011;600;48.044;7.878;2022-12-20T00:50:31;2.13;;;1.60;;
1220;SDS011;600;48.044;7.878;2022-12-20T00:52:57;1.83;;;1.60;;
1220;SDS011;600;48.044;7.878;2022-12-20T00:55:24;2.85;;;1.70;;
1220;SDS011;600;48.044;7.878;2022-12-20T00:57:51;1.60;;;1.50;;
1220;SDS011;600;48.044;7.878;2022-12-20T01:00:18;1.97;;;1.87;;
1220;SDS011;600;48.044;7.878;2022-12-20T01:02:46;1.27;;;1.17;;
1220;SDS011;600;48.044;7.878;2022-12-20T01:05:13;1.15;;;1.15;;
1220;SDS011;600;48.044;7.878;2022-12-20T01:07:40;1.48;;;1.38;;
1220;SDS011;600;48.044;7.878;2022-12-20T01:10:07;1.70;;;1.60;;
1220;SDS011;600;48.044;7.878;2022-12-20T01:12:35;1.25;;;1.25;;
1220;SDS011;600;48.044;7.878;2022-12-20T01:15:01;1.60;;;1.50;;
1220;SDS011;600;48.044;7.878;2022-12-20T01:17:29;1.55;;;1.45;;
1220;SDS011;600;48.044;7.878;2022-12-20T01:19:57;1.50;;;1.42;;
1220;SDS011;600;48.044;7.878;2022-12-20T01:22:24;1.60;;;1.50;;
1220;SDS011;600;48.044;7.878;2022-12-20T01:24:50;2.00;;;1.42;;
1220;SDS011;600;48.044;7.878;2022-12-20T01:27:17;2.15;;;1.60;;
1220;SDS011;600;48.044;7.878;2022-12-20T01:29:44;1.83;;;1.63;;
1220;SDS011;600;48.044;7.878;2022-12-20T01:32:10;2.17;;;1.30;;
1220;SDS011;600;48.044;7.878;2022-12-20T01:34:37;2.25;;;2.05;;
1220;SDS011;600;48.044;7.878;2022-12-20T01:37:05;2.88;;;1.40;;
1220;SDS011;600;48.044;7.878;2022-12-20T01:39:32;1.65;;;1.55;;
1220;SDS011;600;48.044;7.878;2022-12-20T01:41:59;1.50;;;1.50;;
1220;SDS011;600;48.044;7.878;2022-12-20T01:47:17;2.15;;;1.58;;
1220;SDS011;600;48.044;7.878;2022-12-20T01:49:44;1.77;;;1.67;;
1220;SDS011;600;48.044;7.878;2022-12-20T01:52:18;1.63;;;1.52;;
1220;SDS011;600;48.044;7.878;2022-12-20T01:54:48;1.40;;;1.30;;
1220;SDS011;600;48.044;7.878;2022-12-20T01:57:21;1.52;;;1.42;;
1220;SDS011;600;48.044;7.878;2022-12-20T01:59:52;1.63;;;1.52;;
1220;SDS011;600;48.044;7.878;2022-12-20T02:02:20;2.03;;;1.77;;
1220;SDS011;600;48.044;7.878;2022-12-20T02:04:48;1.70;;;1.60;;
1220;SDS011;600;48.044;7.878;2022-12-20T02:07:16;1.80;;;1.70;;
1220;SDS011;600;48.044;7.878;2022-12-20T02:09:46;2.40;;;1.63;;
1220;SDS011;600;48.044;7.878;2022-12-20T02:12:14;1.88;;;1.65;;
1220;SDS011;600;48.044;7.878;2022-12-20T02:14:49;2.15;;;1.60;;
1220;SDS011;600;48.044;7.878;2022-12-20T02:17:27;1.90;;;1.80;;
1220;SDS011;600;48.044;7.878;2022-12-20T02:20:11;1.48;;;1.38;;
1220;SDS011;600;48.044;7.878;2022-12-20T02:23:10;1.70;;;1.60;;
1220;SDS011;600;48.044;7.878;2022-12-20T02:25:57;1.92;;;1.83;;
1220;SDS011;600;48.044;7.878;2022-12-20T02:28:41;1.95;;;1.70;;
1220;SDS011;600;48.044;7.878;2022-12-20T02:31:22;1.75;;;1.70;;
1220;SDS011;600;48.044;7.878;2022-12-20T02:33:52;3.95;;;2.05;;
1220;SDS011;600;48.044;7.878;2022-12-20T02:36:21;1.80;;;1.70;;
1220;SDS011;600;48.044;7.878;2022-12-20T02:38:47;2.30;;;1.90;;
1220;SDS011;600;48.044;7.878;2022-12-20T02:41:15;3.13;;;1.27;;
1220;SDS011;600;48.044;7.878;2022-12-20T02:43:47;1.50;;;1.40;;
1220;SDS011;600;48.044;7.878;2022-12-20T02:46:36;1.35;;;1.25;;
1220;SDS011;600;48.044;7.878;2022-12-20T02:49:04;4.47;;;1.70;;
1220;SDS011;600;48.044;7.878;2022-12-20T02:51:35;1.52;;;1.30;;
1220;SDS011;600;48.044;7.878;2022-12-20T02:54:04;1.50;;;1.10;;
1220;SDS011;600;48.044;7.878;2022-12-20T02:56:31;1.08;;;1.08;;
1220;SDS011;600;48.044;7.878;2022-12-20T02:59:01;1.50;;;1.40;;
1220;SDS011;600;48.044;7.878;2022-12-20T03:01:36;1.52;;;1.42;;
1220;SDS011;600;48.044;7.878;2022-12-20T03:04:06;1.70;;;1.57;;
1220;SDS011;600;48.044;7.878;2022-12-20T03:06:33;1.45;;;1.38;;
1220;SDS011;600;48.044;7.878;2022-12-20T03:09:00;1.17;;;1.10;;
1220;SDS011;600;48.044;7.878;2022-12-20T03:11:27;1.40;;;1.30;;
1220;SDS011;600;48.044;7.878;2022-12-20T03:13:53;1.00;;;1.00;;
1220;SDS011;600;48.044;7.878;2022-12-20T03:16:20;1.50;;;1.40;;
1220;SDS011;600;48.044;7.878;2022-12-20T03:18:48;1.23;;;1.20;;
1220;SDS011;600;48.044;7.878;2022-12-20T03:21:15;1.37;;;1.27;;
1220;SDS011;600;48.044;7.878;2022-12-20T03:23:42;1.50;;;1.40;;
1220;SDS011;600;48.044;7.878;2022-12-20T03:26:08;1.53;;;1.30;;
1220;SDS011;600;48.044;7.878;2022-12-20T03:28:35;1.57;;;1.47;;
1220;SDS011;600;48.044;7.878;2022-12-20T03:31:02;1.40;;;1.30;;
1220;SDS011;600;48.044;7.878;2022-12-20T03:33:28;1.17;;;1.17;;
1220;SDS011;600;48.044;7.878;2022-12-20T03:35:56;1.25;;;1.20;;
1220;SDS011;600;48.044;7.878;2022-12-20T03:38:23;1.93;;;1.50;;
1220;SDS011;600;48.044;7.878;2022-12-20T03:40:50;1.73;;;1.40;;
1220;SDS011;600;48.044;7.878;2022-12-20T03:43:16;3.77;;;1.60;;
1220;SDS011;600;48.044;7.878;2022-12-20T03:45:43;1.50;;;1.40;;
1220;SDS011;600;48.044;7.878;2022-12-20T03:48:10;1.60;;;1.50;;
1220;SDS011;600;48.044;7.878;2022-12-20T03:50:37;1.17;;;1.00;;
1220;SDS011;600;48.044;7.878;2022-12-20T03:53:05;1.10;;;1.10;;
1220;SDS011;600;48.044;7.878;2022-12-20T03:55:31;1.98;;;1.15;;
1220;SDS011;600;48.044;7.878;2022-12-20T03:57:58;2.27;;;1.30;;
1220;SDS011;600;48.044;7.878;2022-12-20T04:00:25;1.53;;;1.43;;
1220;SDS011;600;48.044;7.878;2022-12-20T04:02:52;1.00;;;1.00;;
1220;SDS011;600;48.044;7.878;2022-12-20T04:05:18;3.57;;;1.43;;
1220;SDS011;600;48.044;7.878;2022-12-20T04:07:45;1.60;;;1.33;;
1220;SDS011;600;48.044;7.878;2022-12-20T04:10:14;1.27;;;1.17;;
1220;SDS011;600;48.044;7.878;2022-12-20T04:12:40;1.37;;;1.27;;
1220;SDS011;600;48.044;7.878;2022-12-20T04:15:07;1.50;;;1.50;;
1220;SDS011;600;48.044;7.878;2022-12-20T04:17:35;1.83;;;1.50;;
1220;SDS011;600;48.044;7.878;2022-12-20T04:20:01;1.17;;;1.17;;
1220;SDS011;600;48.044;7.878;2022-12-20T04:22:42;1.37;;;1.30;;
1220;SDS011;600;48.044;7.878;2022-12-20T04:25:09;1.20;;;1.20;;
1220;SDS011;600;48.044;7.878;2022-12-20T04:27:37;2.28;;;1.27;;
1220;SDS011;600;48.044;7.878;2022-12-20T04:30:04;1.80;;;1.70;;
1220;SDS011;600;48.044;7.878;2022-12-20T04:32:33;1.33;;;1.30;;
1220;SDS011;600;48.044;7.878;2022-12-20T04:35:00;5.63;;;1.37;;
1220;SDS011;600;48.044;7.878;2022-12-20T04:37:28;2.47;;;1.17;;
1220;SDS011;600;48.044;7.878;2022-12-20T04:39:55;1.70;;;1.20;;
1220;SDS011;600;48.044;7.878;2022-12-20T04:42:22;1.47;;;1.20;;
1220;SDS011;600;48.044;7.878;2022-12-20T04:44:50;1.10;;;1.10;;
1220;SDS011;600;48.044;7.878;2022-12-20T04:50:39;2.00;;;1.07;;
1220;SDS011;600;48.044;7.878;2022-12-20T04:53:06;1.30;;;1.30;;
1220;SDS011;600;48.044;7.878;2022-12-20T04:55:51;1.43;;;1.30;;
1220;SDS011;600;48.044;7.878;2022-12-20T04:58:18;4.60;;;2.95;;
1220;SDS011;600;48.044;7.878;2022-12-20T05:00:46;3.30;;;3.00;;
1220;SDS011;600;48.044;7.878;2022-12-20T05:03:12;3.75;;;3.00;;
1220;SDS011;600;48.044;7.878;2022-12-20T05:05:39;5.23;;;3.40;;
1220;SDS011;600;48.044;7.878;2022-12-20T05:08:06;3.75;;;3.35;;
1220;SDS011;600;48.044;7.878;2022-12-20T05:10:32;4.00;;;3.63;;
1220;SDS011;600;48.044;7.878;2022-12-20T05:12:59;4.97;;;3.93;;
1220;SDS011;600;48.044;7.878;2022-12-20T05:15:26;5.30;;;4.10;;
1220;SDS011;600;48.044;7.878;2022-12-20T05:17:54;4.63;;;3.57;;
1220;SDS011;600;48.044;7.878;2022-12-20T05:20:23;4.85;;;3.20;;
1220;SDS011;600;48.044;7.878;2022-12-20T05:22:50;3.53;;;3.22;;
1220;SDS011;600;48.044;7.878;2022-12-20T05:25:34;3.03;;;2.80;;
1220;SDS011;600;48.044;7.878;2022-12-20T05:28:28;4.40;;;3.10;;
1220;SDS011;600;48.044;7.878;2022-12-20T05:30:55;3.03;;;2.75;;
1220;SDS011;600;48.044;7.878;2022-12-20T05:33:24;4.28;;;3.88;;
1220;SDS011;600;48.044;7.878;2022-12-20T05:35:51;3.38;;;3.15;;
1220;SDS011;600;48.044;7.878;2022-12-20T05:38:17;3.35;;;3.05;;
1220;SDS011;600;48.044;7.878;2022-12-20T05:44:14;2.58;;;2.40;;
1220;SDS011;600;48.044;7.878;2022-12-20T05:46:41;3.80;;;2.45;;
1220;SDS011;600;48.044;7.878;2022-12-20T05:49:09;3.30;;;2.50;;
1220;SDS011;600;48.044;7.878;2022-12-20T05:51:36;2.55;;;2.22;;
1220;SDS011;600;48.044;7.878;2022-12-20T05:54:02;2.83;;;2.60;;
1220;SDS011;600;48.044;7.878;2022-12-20T05:56:29;2.67;;;2.47;;
1220;SDS011;600;48.044;7.878;2022-12-20T05:58:56;2.80;;;2.60;;
1220;SDS011;600;48.044;7.878;2022-12-20T06:01:23;3.40;;;3.10;;
1220;SDS011;600;48.044;7.878;2022-12-20T06:03:50;3.13;;;2.90;;
1220;SDS011;600;48.044;7.878;2022-12-20T06:06:18;3.42;;;3.13;;
1220;SDS011;600;48.044;7.878;2022-12-20T06:08:45;3.33;;;3.05;;
1220;SDS011;600;48.044;7.878;2022-12-20T06:11:12;3.42;;;3.13;;
1220;SDS011;600;48.044;7.878;2022-12-20T06:13:38;4.93;;;3.90;;
1220;SDS011;600;48.044;7.878;2022-12-20T06:16:05;7.68;;;5.97;;
1220;SDS011;600;48.044;7.878;2022-12-20T06:18:32;5.93;;;5.20;;
1220;SDS011;600;48.044;7.878;2022-12-20T06:20:59;3.88;;;3.40;;
1220;SDS011;600;48.044;7.878;2022-12-20T06:23:27;3.03;;;2.83;;
1220;SDS011;600;48.044;7.878;2022-12-20T06:25:54;3.63;;;2.60;;
1220;SDS011;600;48.044;7.878;2022-12-20T06:28:22;2.60;;;2.40;;
1220;SDS011;600;48.044;7.878;2022-12-20T06:30:51;2.80;;;2.60;;
1220;SDS011;600;48.044;7.878;2022-12-20T06:33:18;3.03;;;2.75;;
1220;SDS011;600;48.044;7.878;2022-12-20T06:35:44;3.60;;;3.30;;
1220;SDS011;600;48.044;7.878;2022-12-20T06:38:11;5.95;;;4.70;;
1220;SDS011;600;48.044;7.878;2022-12-20T06:40:39;6.97;;;5.50;;
1220;SDS011;600;48.044;7.878;2022-12-20T06:43:06;6.10;;;4.20;;
1220;SDS011;600;48.044;7.878;2022-12-20T06:45:33;5.72;;;4.90;;
1220;SDS011;600;48.044;7.878;2022-12-20T06:48:00;3.80;;;3.40;;
1220;SDS011;600;48.044;7.878;2022-12-20T06:50:26;4.65;;;4.18;;
1220;SDS011;600;48.044;7.878;2022-12-20T06:52:53;3.72;;;3.42;;
1220;SDS011;600;48.044;7.878;2022-12-20T06:55:20;3.80;;;3.50;;
1220;SDS011;600;48.044;7.878;2022-12-20T06:57:48;3.38;;;3.17;;
1220;SDS011;600;48.044;7.878;2022-12-20T07:00:15;4.80;;;3.72;;
1220;SDS011;600;48.044;7.878;2022-12-20T07:02:42;3.70;;;3.40;;
1220;SDS011;600;48.044;7.878;2022-12-20T07:05:09;5.80;;;4.00;;
1220;SDS011;600;48.044;7.878;2022-12-20T07:07:36;4.07;;;3.65;;
1220;SDS011;600;48.044;7.878;2022-12-20T07:10:03;4.90;;;4.10;;
1220;SDS011;600;48.044;7.878;2022-12-20T07:12:31;4.38;;;3.35;;
1220;SDS011;600;48.044;7.878;2022-12-20T07:14:59;2.85;;;2.55;;
1220;SDS011;600;48.044;7.878;2022-12-20T07:17:26;3.17;;;2.30;;
1220;SDS011;600;48.044;7.878;2022-12-20T07:19:53;2.30;;;2.17;;
1220;SDS011;600;48.044;7.878;2022-12-20T07:22:19;2.65;;;2.10;;
1220;SDS011;600;48.044;7.878;2022-12-20T07:24:46;2.10;;;1.90;;
1220;SDS011;600;48.044;7.878;2022-12-20T07:27:14;2.67;;;2.20;;
1220;SDS011;600;48.044;7.878;2022-12-20T07:29:41;2.35;;;2.25;;
1220;SDS011;600;48.044;7.878;2022-12-20T07:32:10;2.08;;;1.92;;
1220;SDS011;600;48.044;7.878;2022-12-20T07:34:37;2.20;;;2.10;;
1220;SDS011;600;48.044;7.878;2022-12-20T07:37:04;3.25;;;2.95;;
1220;SDS011;600;48.044;7.878;2022-12-20T07:39:32;2.72;;;2.53;;
1220;SDS011;600;48.044;7.878;2022-12-20T07:41:59;3.20;;;1.83;;
1220;SDS011;600;48.044;7.878;2022-12-20T07:44:26;2.40;;;2.20;;
1220;SDS011;600;48.044;7.878;2022-12-20T07:46:52;4.38;;;3.60;;
1220;SDS011;600;48.044;7.878;2022-12-20T07:49:20;5.40;;;4.55;;
1220;SDS011;600;48.044;7.878;2022-12-20T07:51:48;5.17;;;4.70;;
1220;SDS011;600;48.044;7.878;2022-12-20T07:54:17;6.15;;;5.60;;
1220;SDS011;600;48.044;7.878;2022-12-20T07:56:48;3.73;;;3.43;;
1220;SDS011;600;48.044;7.878;2022-12-20T07:59:18;3.27;;;2.87;;
1220;SDS011;600;48.044;7.878;2022-12-20T08:01:48;2.40;;;2.20;;
1220;SDS011;600;48.044;7.878;2022-12-20T08:04:16;2.60;;;2.20;;
1220;SDS011;600;48.044;7.878;2022-12-20T08:06:47;1.80;;;1.53;;
1220;SDS011;600;48.044;7.878;2022-12-20T08:09:15;2.10;;;2.00;;
1220;SDS011;600;48.044;7.878;2022-12-20T08:11:43;3.07;;;2.87;;
1220;SDS011;600;48.044;7.878;2022-12-20T08:14:12;4.20;;;3.90;;
1220;SDS011;600;48.044;7.878;2022-12-20T08:16:39;4.73;;;4.30;;
1220;SDS011;600;48.044;7.878;2022-12-20T08:19:07;8.15;;;6.53;;
1220;SDS011;600;48.044;7.878;2022-12-20T08:21:34;6.70;;;6.10;;
1220;SDS011;600;48.044;7.878;2022-12-20T08:24:02;8.10;;;7.30;;
1220;SDS011;600;48.044;7.878;2022-12-20T08:26:29;9.55;;;8.35;;
1220;SDS011;600;48.044;7.878;2022-12-20T08:28:56;12.98;;;10.50;;
1220;SDS011;600;48.044;7.878;2022-12-20T08:31:22;12.98;;;9.18;;
1220;SDS011;600;48.044;7.878;2022-12-20T08:33:49;9.05;;;7.95;;
1220;SDS011;600;48.044;7.878;2022-12-20T08:36:19;9.20;;;6.50;;
1220;SDS011;600;48.044;7.878;2022-12-20T08:38:46;7.40;;;6.60;;
1220;SDS011;600;48.044;7.878;2022-12-20T08:41:14;10.40;;;7.85;;
1220;SDS011;600;48.044;7.878;2022-12-20T08:43:42;7.40;;;6.70;;
1220;SDS011;600;48.044;7.878;2022-12-20T08:46:09;9.57;;;7.97;;
1220;SDS011;600;48.044;7.878;2022-12-20T08:48:37;4.47;;;4.00;;
1220;SDS011;600;48.044;7.878;2022-12-20T08:51:04;2.10;;;1.93;;
1220;SDS011;600;48.044;7.878;2022-12-20T08:53:33;1.80;;;1.70;;
1220;SDS011;600;48.044;7.878;2022-12-20T08:56:04;2.97;;;2.77;;
1220;SDS011;600;48.044;7.878;2022-12-20T08:58:33;2.57;;;2.37;;
1220;SDS011;600;48.044;7.878;2022-12-20T09:01:02;2.27;;;2.07;;
1220;SDS011;600;48.044;7.878;2022-12-20T09:03:30;4.87;;;3.30;;
1220;SDS011;600;48.044;7.878;2022-12-20T09:05:57;2.40;;;2.20;;
1220;SDS011;600;48.044;7.878;2022-12-20T09:08:24;2.07;;;1.97;;
1220;SDS011;600;48.044;7.878;2022-12-20T09:10:52;2.10;;;1.97;;
1220;SDS011;600;48.044;7.878;2022-12-20T09:13:19;1.93;;;1.70;;
1220;SDS011;600;48.044;7.878;2022-12-20T09:15:47;4.17;;;2.03;;
1220;SDS011;600;48.044;7.878;2022-12-20T09:18:14;1.70;;;1.60;;
1220;SDS011;600;48.044;7.878;2022-12-20T09:20:42;3.73;;;1.73;;
1220;SDS011;600;48.044;7.878;2022-12-20T09:23:10;1.67;;;1.57;;
1220;SDS011;600;48.044;7.878;2022-12-20T09:25:37;2.87;;;1.80;;
1220;SDS011;600;48.044;7.878;2022-12-20T09:28:04;3.27;;;2.73;;
1220;SDS011;600;48.044;7.878;2022-12-20T09:30:31;4.67;;;4.17;;
1220;SDS011;600;48.044;7.878;2022-12-20T09:32:59;5.73;;;5.13;;
1220;SDS011;600;48.044;7.878;2022-12-20T09:35:25;6.50;;;4.90;;
1220;SDS011;600;48.044;7.878;2022-12-20T09:37:52;5.73;;;4.33;;
1220;SDS011;600;48.044;7.878;2022-12-20T09:40:19;5.40;;;4.80;;
1220;SDS011;600;48.044;7.878;2022-12-20T09:42:48;4.97;;;4.47;;
1220;SDS011;600;48.044;7.878;2022-12-20T09:45:18;4.83;;;4.40;;
1220;SDS011;600;48.044;7.878;2022-12-20T09:47:50;5.07;;;3.80;;
1220;SDS011;600;48.044;7.878;2022-12-20T09:50:19;4.33;;;3.93;;
1220;SDS011;600;48.044;7.878;2022-12-20T09:52:53;5.77;;;4.63;;
1220;SDS011;600;48.044;7.878;2022-12-20T09:55:30;6.23;;;5.17;;
1220;SDS011;600;48.044;7.878;2022-12-20T10:00:51;10.40;;;4.67;;
1220;SDS011;600;48.044;7.878;2022-12-20T10:03:19;8.60;;;4.80;;
1220;SDS011;600;48.044;7.878;2022-12-20T10:05:50;9.20;;;5.47;;
1220;SDS011;600;48.044;7.878;2022-12-20T10:08:36;6.13;;;4.40;;
1220;SDS011;600;48.044;7.878;2022-12-20T10:11:12;4.93;;;4.47;;
1220;SDS011;600;48.044;7.878;2022-12-20T10:13:59;6.77;;;4.40;;
1220;SDS011;600;48.044;7.878;2022-12-20T10:16:36;6.80;;;5.00;;
1220;SDS011;600;48.044;7.878;2022-12-20T10:19:12;8.33;;;5.40;;
1220;SDS011;600;48.044;7.878;2022-12-20T10:21:57;7.07;;;5.60;;
1220;SDS011;600;48.044;7.878;2022-12-20T10:24:33;7.03;;;6.23;;
1220;SDS011;600;48.044;7.878;2022-12-20T10:27:06;10.67;;;5.80;;
1220;SDS011;600;48.044;7.878;2022-12-20T10:29:38;6.23;;;5.20;;
1220;SDS011;600;48.044;7.878;2022-12-20T10:32:09;6.80;;;5.77;;
1220;SDS011;600;48.044;7.878;2022-12-20T10:34:39;7.73;;;5.53;;
1220;SDS011;600;48.044;7.878;2022-12-20T10:37:12;7.47;;;6.27;;
1220;SDS011;600;48.044;7.878;2022-12-20T10:39:42;9.03;;;6.70;;
1220;SDS011;600;48.044;7.878;2022-12-20T10:42:26;7.80;;;7.00;;
1220;SDS011;600;48.044;7.878;2022-12-20T10:45:01;8.60;;;7.40;;
1220;SDS011;600;48.044;7.878;2022-12-20T10:47:35;13.10;;;9.10;;
1220;SDS011;600;48.044;7.878;2022-12-20T10:50:11;11.70;;;8.10;;
1220;SDS011;600;48.044;7.878;2022-12-20T10:52:41;9.20;;;7.00;;
1220;SDS011;600;48.044;7.878;2022-12-20T10:55:30;8.67;;;7.17;;
1220;SDS011;600;48.044;7.878;2022-12-20T10:58:01;7.10;;;5.73;;
1220;SDS011;600;48.044;7.878;2022-12-20T11:00:29;4.33;;;3.93;;
1220;SDS011;600;48.044;7.878;2022-12-20T11:03:09;3.40;;;3.10;;
1220;SDS011;600;48.044;7.878;2022-12-20T11:05:39;2.60;;;2.40;;
1220;SDS011;600;48.044;7.878;2022-12-20T11:08:19;2.87;;;2.30;;
1220;SDS011;600;48.044;7.878;2022-12-20T11:10:48;2.43;;;2.27;;
1220;SDS011;600;48.044;7.878;2022-12-20T11:13:19;2.83;;;2.10;;
1220;SDS011;600;48.044;7.878;2022-12-20T11:15:48;2.57;;;2.30;;
1220;SDS011;600;48.044;7.878;2022-12-20T11:18:18;2.50;;;1.80;;
1220;SDS011;600;48.044;7.878;2022-12-20T11:20:50;1.90;;;1.80;;
1220;SDS011;600;48.044;7.878;2022-12-20T11:23:25;2.10;;;1.90;;
1220;SDS011;600;48.044;7.878;2022-12-20T11:26:01;2.30;;;1.87;;
1220;SDS011;600;48.044;7.878;2022-12-20T11:28:43;3.20;;;2.27;;
1220;SDS011;600;48.044;7.878;2022-12-20T11:31:18;4.50;;;4.10;;
1220;SDS011;600;48.044;7.878;2022-12-20T11:33:57;3.63;;;3.43;;
1220;SDS011;600;48.044;7.878;2022-12-20T11:36:37;3.83;;;2.77;;
1220;SDS011;600;48.044;7.878;2022-12-20T11:39:20;3.50;;;2.43;;
1220;SDS011;600;48.044;7.878;2022-12-20T11:41:57;2.10;;;2.00;;
1220;SDS011;600;48.044;7.878;2022-12-20T11:44:30;2.33;;;2.13;;
1220;SDS011;600;48.044;7.878;2022-12-20T11:47:16;2.37;;;2.17;;
1220;SDS011;600;48.044;7.878;2022-12-20T11:50:08;2.97;;;2.37;;
1220;SDS011;600;48.044;7.878;2022-12-20T11:52:45;2.07;;;1.97;;
1220;SDS011;600;48.044;7.878;2022-12-20T11:55:18;3.23;;;2.47;;
1220;SDS011;600;48.044;7.878;2022-12-20T11:57:52;3.10;;;2.10;;
1220;SDS011;600;48.044;7.878;2022-12-20T12:00:24;1.50;;;1.50;;
1220;SDS011;600;48.044;7.878;2022-12-20T12:02:53;1.70;;;1.60;;
1220;SDS011;600;48.044;7.878;2022-12-20T12:05:25;2.57;;;2.37;;
1220;SDS011;600;48.044;7.878;2022-12-20T12:08:09;3.50;;;2.80;;
1220;SDS011;600;48.044;7.878;2022-12-20T12:10:43;4.60;;;2.80;;
1220;SDS011;600;48.044;7.878;2022-12-20T12:13:17;2.90;;;2.63;;
1220;SDS011;600;48.044;7.878;2022-12-20T12:15:51;3.53;;;2.23;;
1220;SDS011;600;48.044;7.878;2022-12-20T12:18:23;1.97;;;1.87;;
1220;SDS011;600;48.044;7.878;2022-12-20T12:20:55;1.80;;;1.70;;
1220;SDS011;600;48.044;7.878;2022-12-20T12:23:32;1.90;;;1.70;;
1220;SDS011;600;48.044;7.878;2022-12-20T12:26:09;2.23;;;2.03;;
1220;SDS011;600;48.044;7.878;2022-12-20T12:28:38;2.43;;;2.23;;
1220;SDS011;600;48.044;7.878;2022-12-20T12:31:05;2.87;;;2.60;;
1220;SDS011;600;48.044;7.878;2022-12-20T12:33:37;2.27;;;2.03;;
1220;SDS011;600;48.044;7.878;2022-12-20T12:42:08;2.40;;;1.90;;
1220;SDS011;600;48.044;7.878;2022-12-20T12:44:46;3.70;;;2.60;;
1220;SDS011;600;48.044;7.878;2022-12-20T12:47:18;3.30;;;2.77;;
1220;SDS011;600;48.044;7.878;2022-12-20T12:49:49;2.67;;;2.30;;
1220;SDS011;600;48.044;7.878;2022-12-20T12:52:28;2.87;;;1.80;;
1220;SDS011;600;48.044;7.878;2022-12-20T12:58:14;1.77;;;1.67;;
1220;SDS011;600;48.044;7.878;2022-12-20T13:00:57;1.77;;;1.60;;
1220;SDS011;600;48.044;7.878;2022-12-20T13:03:35;2.53;;;1.60;;
1220;SDS011;600;48.044;7.878;2022-12-20T13:09:19;2.00;;;1.90;;
1220;SDS011;600;48.044;7.878;2022-12-20T13:12:00;2.20;;;2.00;;
1220;SDS011;600;48.044;7.878;2022-12-20T13:18:20;1.60;;;1.50;;
1220;SDS011;600;48.044;7.878;2022-12-20T13:27:16;4.07;;;1.90;;
1220;SDS011;600;48.044;7.878;2022-12-20T13:29:59;2.07;;;1.90;;
1220;SDS011;600;48.044;7.878;2022-12-20T13:33:14;2.07;;;1.97;;
1220;SDS011;600;48.044;7.878;2022-12-20T13:35:46;2.50;;;1.80;;
1220;SDS011;600;48.044;7.878;2022-12-20T13:41:19;2.03;;;1.83;;
1220;SDS011;600;48.044;7.878;2022-12-20T13:43:59;2.13;;;1.93;;
1220;SDS011;600;48.044;7.878;2022-12-20T13:46:42;2.20;;;2.00;;
1220;SDS011;600;48.044;7.878;2022-12-20T13:49:17;2.40;;;2.20;;
1220;SDS011;600;48.044;7.878;2022-12-20T13:51:49;3.57;;;2.53;;
1220;SDS011;600;48.044;7.878;2022-12-20T13:57:55;20.20;;;3.80;;
1220;SDS011;600;48.044;7.878;2022-12-20T14:00:22;5.83;;;2.80;;
1220;SDS011;600;48.044;7.878;2022-12-20T14:02:51;3.10;;;2.20;;
1220;SDS011;600;48.044;7.878;2022-12-20T14:05:21;6.83;;;2.80;;
1220;SDS011;600;48.044;7.878;2022-12-20T14:07:52;2.33;;;2.13;;
1220;SDS011;600;48.044;7.878;2022-12-20T14:10:24;3.50;;;2.37;;
1220;SDS011;600;48.044;7.878;2022-12-20T14:12:53;2.13;;;1.90;;
1220;SDS011;600;48.044;7.878;2022-12-20T14:15:22;7.10;;;2.07;;
1220;SDS011;600;48.044;7.878;2022-12-20T14:17:50;2.70;;;2.10;;
1220;SDS011;600;48.044;7.878;2022-12-20T14:20:17;3.60;;;1.70;;
1220;SDS011;600;48.044;7.878;2022-12-20T14:22:52;2.50;;;1.90;;
1220;SDS011;600;48.044;7.878;2022-12-20T14:25:24;3.43;;;2.03;;
1220;SDS011;600;48.044;7.878;2022-12-20T14:27:58;2.43;;;2.00;;
1220;SDS011;600;48.044;7.878;2022-12-20T14:30:26;2.37;;;1.90;;
1220;SDS011;600;48.044;7.878;2022-12-20T14:32:56;2.20;;;2.03;;
1220;SDS011;600;48.044;7.878;2022-12-20T14:35:24;2.17;;;1.83;;
1220;SDS011;600;48.044;7.878;2022-12-20T14:37:53;3.63;;;2.27;;
1220;SDS011;600;48.044;7.878;2022-12-20T14:40:21;2.50;;;2.30;;
1220;SDS011;600;48.044;7.878;2022-12-20T14:42:49;3.70;;;2.67;;
1220;SDS011;600;48.044;7.878;2022-12-20T14:45:17;2.83;;;2.17;;
1220;SDS011;600;48.044;7.878;2022-12-20T14:47:49;2.53;;;2.23;;
1220;SDS011;600;48.044;7.878;2022-12-20T14:50:25;2.03;;;1.87;;
1220;SDS011;600;48.044;7.878;2022-12-20T14:52:55;2.87;;;2.67;;
1220;SDS011;600;48.044;7.878;2022-12-20T14:55:23;2.70;;;2.50;;
1220;SDS011;600;48.044;7.878;2022-12-20T14:57:55;2.73;;;2.53;;
1220;SDS011;600;48.044;7.878;2022-12-20T15:00:24;2.60;;;2.40;;
1220;SDS011;600;48.044;7.878;2022-12-20T15:02:57;5.97;;;3.27;;
1220;SDS011;600;48.044;7.878;2022-12-20T15:05:41;2.60;;;2.40;;
1220;SDS011;600;48.044;7.878;2022-12-20T15:08:13;2.00;;;1.90;;
1220;SDS011;600;48.044;7.878;2022-12-20T15:10:46;1.87;;;1.77;;
1220;SDS011;600;48.044;7.878;2022-12-20T15:13:19;2.00;;;1.90;;
1220;SDS011;600;48.044;7.878;2022-12-20T15:15:47;2.27;;;2.07;;
1220;SDS011;600;48.044;7.878;2022-12-20T15:18:14;2.60;;;2.40;;
1220;SDS011;600;48.044;7.878;2022-12-20T15:20:44;4.23;;;2.50;;
1220;SDS011;600;48.044;7.878;2022-12-20T15:23:14;2.30;;;2.10;;
1220;SDS011;600;48.044;7.878;2022-12-20T15:25:41;2.30;;;2.10;;
1220;SDS011;600;48.044;7.878;2022-12-20T15:28:18;2.10;;;2.00;;
1220;SDS011;600;48.044;7.878;2022-12-20T15:30:46;1.87;;;1.77;;
1220;SDS011;600;48.044;7.878;2022-12-20T15:33:15;1.80;;;1.70;;
1220;SDS011;600;48.044;7.878;2022-12-20T15:35:44;2.23;;;1.87;;
1220;SDS011;600;48.044;7.878;2022-12-20T15:38:12;2.70;;;2.50;;
1220;SDS011;600;48.044;7.878;2022-12-20T15:40:41;2.70;;;2.53;;
1220;SDS011;600;48.044;7.878;2022-12-20T15:43:10;2.20;;;2.00;;
1220;SDS011;600;48.044;7.878;2022-12-20T15:45:38;2.40;;;2.17;;
1220;SDS011;600;48.044;7.878;2022-12-20T15:48:09;1.83;;;1.73;;
1220;SDS011;600;48.044;7.878;2022-12-20T15:50:42;2.80;;;2.60;;
1220;SDS011;600;48.044;7.878;2022-12-20T15:53:14;3.40;;;3.10;;
1220;SDS011;600;48.044;7.878;2022-12-20T15:55:46;4.17;;;2.67;;
1220;SDS011;600;48.044;7.878;2022-12-20T15:58:14;4.63;;;3.03;;
1220;SDS011;600;48.044;7.878;2022-12-20T16:00:41;3.03;;;2.73;;
1220;SDS011;600;48.044;7.878;2022-12-20T16:03:11;2.80;;;2.60;;
1220;SDS011;600;48.044;7.878;2022-12-20T16:05:40;3.33;;;2.70;;
1220;SDS011;600;48.044;7.878;2022-12-20T16:08:08;4.80;;;3.10;;
1220;SDS011;600;48.044;7.878;2022-12-20T16:10:35;3.03;;;2.50;;
1220;SDS011;600;48.044;7.878;2022-12-20T16:13:02;2.70;;;2.50;;
1220;SDS011;600;48.044;7.878;2022-12-20T16:15:29;2.90;;;2.70;;
1220;SDS011;600;48.044;7.878;2022-12-20T16:17:55;3.17;;;2.90;;
1220;SDS011;600;48.044;7.878;2022-12-20T16:20:22;3.60;;;3.13;;
1220;SDS011;600;48.044;7.878;2022-12-20T16:22:51;3.83;;;3.53;;
1220;SDS011;600;48.044;7.878;2022-12-20T16:25:24;3.70;;;2.97;;
1220;SDS011;600;48.044;7.878;2022-12-20T16:27:52;3.93;;;3.40;;
1220;SDS011;600;48.044;7.878;2022-12-20T16:30:19;5.97;;;4.23;;